Latest Weather Observations for Broome

IDW60801

Issued at 9:32 pm WST Saturday 28 February 2015 (issued every 30 minutes, with the page automatically refreshed every 10 minutes)

About weather observations | Map of weather stations | Latest weather observations for WA | Other Formats
Station Details ID: 003003 Name: BROOME AIRPORT Lat: -17.95 Lon: 122.24 Height: 7.42 m
Data from the previous 72 hours. | See also: Recent months at Broome
Date/Time
WST
Temp
°C
App
Temp
°C
Dew
Point
Rel
Hum
%
Delta-T
°C
Wind Press
QNH
hPa
Press
MSL
hPa
Rain
since 9 am
mm
Dir
 
Spd
km/h
Gust
km/h
Spd
kts
Gust
kts
28/09:30pm 26.3 31.0 24.3 89 1.4 NNW 7 9 4 5 1007.3 - 1.0
28/09:00pm 26.2 31.1 24.3 89 1.3 NNW 6 7 3 4 1007.4 1007.3 1.0
28/08:30pm 26.3 32.3 24.9 92 1.0 NW 2 9 1 5 1007.5 - 1.0
28/08:00pm 26.3 31.2 24.7 91 1.1 N 7 11 4 6 1007.3 - 1.0
28/07:30pm 26.5 32.3 24.5 89 1.4 WSW 2 9 1 5 1007.2 - 1.0
28/07:00pm 26.4 31.0 24.7 90 1.2 ESE 9 13 5 7 1007.3 - 1.0
28/06:41pm 26.3 29.5 24.3 89 1.4 SE 15 20 8 11 1007.6 - 1.0
28/06:29pm 25.7 27.2 24.4 92 0.9 SSE 24 33 13 18 1007.7 - 1.0
28/06:18pm 27.6 32.9 25.8 90 1.3 ENE 9 17 5 9 1007.6 - 1.0
28/05:30pm 30.7 34.7 25.0 71 4.0 W 13 22 7 12 1006.4 - 0.0
28/05:00pm 30.7 34.8 25.2 72 3.9 WNW 13 20 7 11 1005.4 - 0.0
28/04:30pm 30.9 34.1 24.9 70 4.2 WNW 17 20 9 11 1005.4 - 0.0
28/04:00pm 31.1 34.5 25.3 71 4.1 WNW 17 22 9 12 1005.1 - 0.0
28/03:30pm 31.4 34.4 25.2 69 4.4 W 19 24 10 13 1004.8 - 0.0
28/03:00pm 32.4 35.4 25.2 66 5.1 W 19 28 10 15 1004.8 1004.7 0.0
28/02:30pm 32.7 35.8 25.4 65 5.2 W 19 26 10 14 1004.7 - 0.0
28/02:00pm 32.8 35.8 25.3 64 5.3 W 19 26 10 14 1005.1 - 0.0
28/01:30pm 33.1 36.6 25.4 64 5.5 W 17 30 9 16 1005.6 - 0.0
28/01:00pm 33.3 37.3 25.1 62 5.8 W 13 20 7 11 1005.9 - 0.0
28/12:30pm 32.5 37.0 25.8 68 4.8 W 13 17 7 9 1006.4 - 0.0
28/12:00pm 31.8 36.3 25.2 68 4.7 WSW 11 15 6 8 1007.0 1006.9 0.0
28/11:30am 32.3 37.1 25.7 68 4.7 SSW 11 17 6 9 1007.5 - 0.0
28/11:00am 31.7 37.3 26.3 73 3.9 S 9 15 5 8 1007.9 - 0.0
28/10:30am 31.6 36.2 24.8 67 4.8 W 9 15 5 8 1008.5 - 0.0
28/10:00am 30.9 36.5 26.3 76 3.3 SSW 9 15 5 8 1008.6 - 0.0
28/09:30am 31.4 37.5 27.0 77 3.2 SE 9 15 5 8 1008.6 - 0.0
28/09:00am 30.8 36.6 27.2 81 2.6 SE 11 15 6 8 1008.7 1008.6 6.0
28/08:30am 30.5 35.8 27.0 81 2.5 SE 13 19 7 10 1008.3 - 6.0
28/08:00am 30.0 35.9 26.8 83 2.3 SE 9 13 5 7 1008.1 - 6.0
28/07:30am 29.9 36.5 27.3 86 1.9 ESE 7 9 4 5 1008.0 - 6.0
28/07:00am 28.2 35.5 26.9 93 0.9 ENE 2 6 1 3 1007.9 - 6.0
28/06:30am 27.1 34.5 26.4 96 0.5 CALM 0 0 0 0 1007.4 - 6.0
28/06:00am 26.3 33.0 25.9 98 0.3 NNE 2 7 1 4 1006.9 1006.8 6.0
28/05:30am 25.9 31.5 25.5 98 0.3 NNE 6 9 3 5 1006.8 - 6.0
28/05:00am 26.1 33.1 25.8 98 0.2 CALM 0 0 0 0 1006.5 - 6.0
28/04:30am 26.0 32.1 25.6 98 0.3 N 4 7 2 4 1006.5 - 6.0
28/04:00am 25.8 31.4 25.4 98 0.3 NNE 6 7 3 4 1006.3 - 6.0
28/03:30am 25.6 32.2 25.2 98 0.3 CALM 0 0 0 0 1006.1 - 6.0
28/03:00am 25.8 32.5 25.4 98 0.3 CALM 0 0 0 0 1006.1 1006.0 6.0
28/02:30am 25.7 32.3 25.3 98 0.3 CALM 0 0 0 0 1006.2 - 5.8
28/02:00am 25.8 32.5 25.4 98 0.3 CALM 0 0 0 0 1006.5 - 5.8
28/01:30am 26.2 33.0 25.6 96 0.4 CALM 0 0 0 0 1006.6 - 5.8
28/01:00am 26.1 31.7 25.5 96 0.4 N 6 7 3 4 1007.2 - 5.8
28/12:30am 26.3 31.8 25.6 96 0.5 N 7 11 4 6 1007.4 - 5.8
28/12:00am 26.0 31.4 25.4 96 0.4 WNW 7 9 4 5 1007.7 1007.6 5.8
 
Date/Time
WST
Temp
°C
App
Temp
°C
Dew
Point
Rel
Hum
%
Delta-T
°C
Wind Press
QNH
hPa
Press
MSL
hPa
Rain
since 9 am
mm
Dir
 
Spd
km/h
Gust
km/h
Spd
kts
Gust
kts
27/11:30pm 25.8 31.6 25.1 96 0.5 WSW 4 11 2 6 1008.2 - 5.8
27/11:00pm 25.7 32.2 25.1 96 0.4 CALM 0 6 0 3 1008.3 - 5.8
27/10:30pm 25.6 30.7 25.0 96 0.4 ENE 7 9 4 5 1008.3 - 5.8
27/10:00pm 25.8 31.2 25.2 96 0.4 NNE 6 7 3 4 1008.2 - 5.8
27/09:30pm 26.0 32.6 25.3 96 0.5 CALM 0 0 0 0 1007.8 - 5.8
27/09:00pm 25.9 32.4 25.0 95 0.6 CALM 0 6 0 3 1007.1 1007.0 5.8
27/08:30pm 25.6 30.7 24.9 96 0.5 SE 7 13 4 7 1006.6 - 5.8
27/08:00pm 25.5 31.5 24.8 96 0.5 N 2 9 1 5 1005.7 - 5.8
27/07:30pm 25.3 29.9 24.7 96 0.4 NNE 9 13 5 7 1005.3 - 5.8
27/07:00pm 25.3 30.8 24.6 96 0.5 E 4 9 2 5 1005.2 - 5.8
27/06:30pm 25.2 30.1 24.3 95 0.6 NNE 6 9 3 5 1005.3 - 5.8
27/06:00pm 25.2 29.9 24.3 95 0.6 N 7 11 4 6 1005.6 1005.5 5.0
27/05:30pm 25.4 30.0 24.7 96 0.5 NE 9 15 5 8 1005.6 - 4.6
27/05:00pm 25.8 28.9 24.8 94 0.7 ENE 17 24 9 13 1005.4 - 4.6
27/04:30pm 29.7 35.2 26.2 81 2.5 ESE 9 17 5 9 1005.1 - 4.4
27/04:00pm 30.7 36.4 25.0 71 4.0 SW 4 9 2 5 1004.8 - 4.4
27/03:30pm 31.2 35.8 25.4 71 4.1 W 11 17 6 9 1004.3 - 4.4
27/03:00pm 31.8 35.3 25.5 69 4.5 W 17 22 9 12 1004.1 1004.0 4.4
27/02:30pm 30.8 34.4 25.6 74 3.7 W 17 20 9 11 1004.0 - 4.4
27/02:00pm 30.3 35.4 24.9 73 3.8 WNW 7 15 4 8 1004.5 - 4.4
27/01:30pm 27.0 31.0 23.8 82 2.2 S 9 15 5 8 1005.2 - 4.4
27/01:00pm 26.7 29.1 23.6 83 2.1 SSE 17 26 9 14 1005.9 - 1.6
27/12:44pm 26.3 28.0 24.6 90 1.2 SE 24 30 13 16 1006.3 - 1.2
27/12:30pm 28.4 31.3 23.9 76 3.1 SSE 15 24 8 13 1006.6 - 0.0
27/12:00pm 31.7 35.8 25.7 70 4.3 W 15 24 8 13 1007.0 1006.9 0.0
27/11:30am 32.0 35.9 24.8 65 5.1 WSW 13 19 7 10 1007.2 - 0.0
27/11:00am 32.7 37.1 25.1 64 5.4 WNW 11 17 6 9 1007.3 - 0.0
27/10:30am 31.9 36.5 25.3 68 4.7 W 11 15 6 8 1007.6 - 0.0
27/10:00am 31.2 38.3 26.0 74 3.7 CALM 0 0 0 0 1007.8 - 0.0
27/09:30am 30.7 37.4 27.1 81 2.6 NE 6 13 3 7 1007.9 - 0.0
27/09:00am 29.5 35.6 27.1 87 1.7 E 9 11 5 6 1008.0 1007.9 3.0
27/08:30am 28.7 36.3 26.7 89 1.4 CALM 0 0 0 0 1008.0 - 3.0
27/08:00am 28.0 35.0 26.5 91 1.1 NNE 2 6 1 3 1007.8 - 3.0
27/07:30am 27.3 33.4 26.2 94 0.8 NNE 6 9 3 5 1007.4 - 3.0
27/07:00am 26.8 32.4 25.7 94 0.8 NNE 7 11 4 6 1007.0 - 3.0
27/06:30am 26.2 31.6 25.5 96 0.5 NNE 7 11 4 6 1006.5 - 3.0
27/06:00am 25.8 30.8 25.4 98 0.3 NE 9 11 5 6 1006.3 1006.2 3.0
27/05:30am 26.0 31.4 25.4 96 0.4 NNE 7 9 4 5 1006.0 - 3.0
27/05:00am 25.9 31.2 25.2 96 0.5 NNE 7 9 4 5 1005.7 - 3.0
27/04:30am 25.9 30.8 25.2 96 0.5 NNE 9 11 5 6 1005.3 - 3.0
27/04:00am 26.0 31.3 25.3 96 0.5 ENE 7 7 4 4 1005.1 - 3.0
27/03:30am 25.9 31.0 25.0 95 0.6 NE 7 9 4 5 1004.9 - 3.0
27/03:00am 26.0 31.1 25.0 94 0.7 NE 7 9 4 5 1004.8 1004.7 3.0
27/02:30am 26.3 32.9 25.2 94 0.8 CALM 0 0 0 0 1004.9 - 3.0
27/02:00am 26.4 32.9 25.1 92 0.9 CALM 0 0 0 0 1005.3 - 3.0
27/01:30am 26.2 31.5 24.9 92 0.9 NNW 6 9 3 5 1005.8 - 3.0
27/01:00am 26.1 32.6 25.0 94 0.8 CALM 0 0 0 0 1006.0 - 3.0
27/12:30am 26.1 32.4 24.8 92 0.9 CALM 0 0 0 0 1006.2 - 3.0
27/12:00am 26.0 31.9 24.7 92 0.9 E 2 6 1 3 1007.1 1007.0 3.0
 
Date/Time
WST
Temp
°C
App
Temp
°C
Dew
Point
Rel
Hum
%
Delta-T
°C
Wind Press
QNH
hPa
Press
MSL
hPa
Rain
since 9 am
mm
Dir
 
Spd
km/h
Gust
km/h
Spd
kts
Gust
kts
26/11:30pm 25.9 30.4 24.6 92 0.9 NE 9 13 5 7 1007.8 - 3.0
26/11:00pm 26.1 31.0 25.2 95 0.6 NNE 9 13 5 7 1007.9 - 2.8
26/10:30pm 26.3 31.6 25.3 94 0.7 N 7 9 4 5 1008.5 - 2.4
26/10:00pm 26.4 31.3 25.3 94 0.8 NE 9 13 5 7 1008.7 - 2.0
26/09:30pm 26.7 31.3 25.3 92 1.0 NE 11 17 6 9 1008.4 - 1.6
26/09:00pm 27.5 32.4 25.9 91 1.1 ENE 11 17 6 9 1008.2 1008.1 1.2
26/08:30pm 28.2 33.4 26.8 92 1.0 NE 13 19 7 10 1007.3 - 1.0
26/08:00pm 29.3 34.8 26.2 83 2.2 N 9 13 5 7 1006.6 - 1.0
26/07:30pm 29.4 35.1 26.5 84 2.1 N 9 11 5 6 1006.2 - 1.0
26/07:00pm 29.4 35.8 26.9 86 1.8 N 7 9 4 5 1006.0 - 1.0
26/06:30pm 29.6 36.1 27.1 86 1.8 NW 7 11 4 6 1005.1 - 1.0
26/06:00pm 29.6 36.9 28.0 91 1.2 NNE 6 7 3 4 1004.6 1004.5 1.0
26/05:30pm 29.9 36.7 27.3 86 1.9 W 6 9 3 5 1003.6 - 1.0
26/05:00pm 31.0 35.4 26.3 76 3.4 NW 15 22 8 12 1004.0 - 0.0
26/04:30pm 31.8 34.8 25.2 68 4.7 W 19 26 10 14 1003.2 - 0.0
26/04:00pm 32.0 34.5 24.8 65 5.1 WNW 20 26 11 14 1003.2 - 0.0
26/03:30pm 31.9 34.6 24.8 66 5.0 WNW 19 26 10 14 1003.7 - 0.0
26/03:00pm 32.9 35.7 25.2 64 5.5 W 20 24 11 13 1003.8 1003.7 0.0
26/02:30pm 33.8 37.3 25.4 61 6.0 W 17 20 9 11 1004.0 - 0.0
26/02:00pm 33.2 36.4 25.0 62 5.8 W 17 24 9 13 1004.4 - 0.0
26/01:30pm 33.7 36.2 24.5 58 6.5 WSW 19 24 10 13 1005.2 - 0.0
26/01:00pm 33.7 37.4 24.6 59 6.4 WNW 13 19 7 10 1005.7 - 0.0
26/12:30pm 33.4 37.1 24.6 60 6.2 WSW 13 19 7 10 1006.3 - 0.0
26/12:00pm 33.8 38.5 24.9 59 6.3 W 9 19 5 10 1006.7 1006.6 0.0
26/11:30am 32.3 36.6 24.3 62 5.6 S 9 13 5 7 1007.1 - 0.0
26/11:00am 32.3 35.8 24.2 62 5.7 S 13 19 7 10 1007.4 - 0.0
26/10:30am 32.2 36.4 24.8 65 5.2 SE 11 17 6 9 1007.8 - 0.0
26/10:00am 31.4 35.6 24.7 67 4.7 SSE 11 15 6 8 1008.3 - 0.0
26/09:30am 31.1 35.2 25.2 71 4.2 SSE 13 17 7 9 1008.4 - 0.0
26/09:00am 31.6 36.3 24.9 67 4.7 E 9 15 5 8 1008.6 1008.5 0.0
26/08:30am 31.0 36.1 25.0 70 4.2 ENE 7 13 4 7 1008.4 - 0.0
26/08:00am 29.8 35.1 25.3 77 3.2 NNE 7 11 4 6 1008.2 - 0.0
26/07:30am 29.5 35.3 26.1 82 2.4 NNE 7 11 4 6 1008.0 - 0.0
26/07:00am 28.0 33.9 25.9 88 1.5 NNE 6 7 3 4 1007.9 - 0.0
26/06:30am 27.0 33.3 26.0 94 0.7 N 4 6 2 3 1007.5 - 0.0
26/06:00am 26.5 32.3 25.8 96 0.5 NNE 6 7 3 4 1007.1 1007.0 0.0
26/05:30am 26.5 32.2 25.9 96 0.4 N 7 9 4 5 1007.0 - 0.0
26/05:00am 26.6 32.6 26.0 96 0.4 NNE 6 7 3 4 1006.9 - 0.0
26/04:30am 26.8 32.8 26.1 96 0.5 N 6 7 3 4 1006.5 - 0.0
26/04:00am 26.9 32.8 26.2 96 0.5 N 7 7 4 4 1006.4 - 0.0
26/03:30am 26.9 32.8 26.2 96 0.5 NNE 7 9 4 5 1006.4 - 0.0
26/03:00am 27.1 33.3 26.4 96 0.5 N 6 7 3 4 1006.3 1006.2 0.0
26/02:30am 27.4 34.0 26.4 94 0.7 N 4 6 2 3 1006.5 - 0.0
26/02:00am 27.3 33.6 26.5 95 0.6 NE 6 7 3 4 1006.4 - 0.0
26/01:30am 27.6 33.9 26.5 94 0.8 N 6 7 3 4 1006.7 - 0.0
26/01:00am 27.7 34.1 26.7 94 0.7 N 6 7 3 4 1006.9 - 0.0
26/12:30am 27.8 35.4 26.7 94 0.8 CALM 0 0 0 0 1007.1 - 0.0
26/12:00am 28.0 35.5 26.6 92 1.0 CALM 0 0 0 0 1007.3 1007.2 0.0
 
Date/Time
WST
Temp
°C
App
Temp
°C
Dew
Point
Rel
Hum
%
Delta-T
°C
Wind Press
QNH
hPa
Press
MSL
hPa
Rain
since 9 am
mm
Dir
 
Spd
km/h
Gust
km/h
Spd
kts
Gust
kts
25/11:30pm 28.5 34.5 26.3 88 1.6 N 7 7 4 4 1007.6 - 0.0
25/11:00pm 29.5 34.8 25.2 77 3.0 NW 7 11 4 6 1007.8 - 0.0
25/10:30pm 29.6 34.4 25.1 77 3.2 NW 9 15 5 8 1007.9 - 0.0
25/10:00pm 29.6 35.0 25.5 78 2.9 NW 7 11 4 6 1008.3 - 0.0

Other Formats:

Comma delimited format used in spreadsheet applications
http://www.bom.gov.au/fwo/IDW60801/IDW60801.94203.axf

JavaScript Object Notation format (JSON) in row-major order
http://www.bom.gov.au/fwo/IDW60801/IDW60801.94203.json